Teriberka, Russia
Current Conditions -  °F | °C
As of 7:30 PM on Monday 22 Dec 2014 (Local Time) from ULMM Reporting Station
Scattered Clouds Scattered Clouds  
Wind Chill: -9°   Ceiling: Unl
Heat Index: -9°   Visibility: 6mi
Dew Point: -15°   Wind: 2mph
Humidity: 77%   Direction: NA
Pressure: 29.32"   Gusts: NA
Location:  69.16°N, 35.18°E
Report Text: ULMM 221630Z VRB01MPS 9999 SCT003 M23/M26 Q0993 NOSIG RMKQBB100 OBST OBSC QFE737 31490134
Loading
Personal Weather Stations






























Interactive Weather Map New forecast layout! Learn more

10-Day Weather Forecast

Advertisements
Track Severe Weather on mobile